Flight Track Log - Related Links

Times and Time Zones

All times are in EDT time to prevent confusion due to time zone crossing. See the ACA831 flight status page for this flight to view local times or setup timezone preferences in your user account.

Time Position Orientation Groundspeed Altitude Reporting Facility
EDT Latitude Longitude Course Direction KTS MPH feet Rate Location/Type
Tue 06:36:24 AM 46.2330 6.1050 225° Southwest 6 7  Level FlightAware ADS-B
Tue 06:36:54 AM 46.2320 6.1040 215° Southwest 6 7 184 Level FlightAware ADS-B
Tue 06:37:19 AM 46.2320 6.1030 270° West 5 6 192 Level FlightAware ADS-B
Tue 06:37:49 AM 46.2310 6.1020 215° Southwest 8 9 200 Level FlightAware ADS-B
Tue 06:38:19 AM 46.2310 6.1010 270° West 7 8 210 Level FlightAware ADS-B
Tue 06:38:44 AM 46.2300 6.1000 215° Southwest 8 9 221 Level FlightAware ADS-B
Tue 06:39:09 AM 46.2290 6.0990 215° Southwest 10 12 231 Level FlightAware ADS-B
Tue 06:39:39 AM 46.2280 6.0980 215° Southwest 12 14 242 Level FlightAware ADS-B
Tue 06:40:04 AM 46.2270 6.0970 215° Southwest 8 9 257 Level FlightAware ADS-B
Tue 06:40:34 AM 46.2270 6.0950 270° West 8 9 271 Level FlightAware ADS-B
Tue 06:41:17 AM 46.2260 6.0940 215° Southwest 5 6 290 Level FlightAware ADS-B
Tue 06:43:00 AM 46.3273 5.8515 296° West  Level FlightAware Approximate
Tue 06:44:00 AM 46.3820 5.7068 301° West  Level FlightAware Approximate
Tue 06:44:19 AM 46.2250 6.0930 301° West 3 3  Level FlightAware ADS-B
Tue 06:46:00 AM 46.3256 5.8566 296° West  Level FlightAware Approximate
Tue 06:46:24 AM 46.2260 6.0920 296° West 2 2  Level FlightAware ADS-B
Tue 06:46:49 AM 46.2270 6.0920 360° North 17 20 1,482 Level FlightAware ADS-B
Tue 06:47:24 AM 46.2380 6.1090 47° Northeast 165 190 2,100 Level FlightAware ADS-B
Tue 06:47:49 AM 46.2520 6.1310 47° Northeast 170 196 2,100 3,900 Climbing FlightAware ADS-B
Tue 06:48:04 AM 46.2590 6.1400 42° Northeast 169 194 2,600 2,400 Climbing FlightAware ADS-B
Tue 06:48:34 AM 46.2770 6.1680 47° Northeast 179 206 3,900 2,291 Climbing FlightAware ADS-B
Tue 06:48:59 AM 46.2930 6.1910 45° Northeast 191 220 4,700 1,500 Climbing FlightAware ADS-B
Tue 06:49:14 AM 46.3030 6.2060 46° Northeast 215 247 4,900 1,600 Climbing FlightAware ADS-B
Tue 06:49:44 AM 46.3260 6.2400 46° Northeast 240 276 5,900 2,040 Climbing FlightAware ADS-B
Tue 06:50:04 AM 46.3420 6.2640 46° Northeast 260 299 6,600 2,509 Climbing FlightAware ADS-B
Tue 06:50:39 AM 46.3740 6.3020 39° Northeast 265 305 8,200 2,933 Climbing FlightAware ADS-B
Tue 06:50:49 AM 46.3880 6.3050 North 274 315 8,800 3,000 Climbing FlightAware ADS-B
Tue 06:51:19 AM 46.4220 6.2800 333° Northwest 278 320 10,200 2,229 Climbing FlightAware ADS-B
Tue 06:51:59 AM 46.4540 6.2150 306° West 318 366 11,400 1,650 Climbing FlightAware ADS-B
Tue 06:52:39 AM 46.4900 6.1400 305° West 351 404 12,400 1,800 Climbing FlightAware ADS-B
Tue 06:53:29 AM 46.5350 6.0480 305° West 373 429 14,100 2,427 Climbing FlightAware ADS-B
Tue 06:54:08 AM 46.5800 5.9560 305° West 389 448 16,000 2,550 Climbing FlightAware ADS-B
Tue 06:54:49 AM 46.6180 5.8790 306° West 394 453 17,500 2,471 Climbing FlightAware ADS-B
Tue 06:55:33 AM 46.6700 5.7720 305° West 401 461 19,500 2,429 Climbing FlightAware ADS-B
Tue 06:56:13 AM 46.7130 5.6830 305° West 407 468 20,900 2,071 Climbing FlightAware ADS-B
Tue 06:56:57 AM 46.7630 5.5810 306° West 413 475 22,400 1,929 Climbing FlightAware ADS-B
Tue 06:57:37 AM 46.8160 5.5040 315° West 419 482 23,600 1,814 Climbing FlightAware ADS-B
Tue 06:58:23 AM 46.8870 5.4210 321° Northwest 425 489 25,000 1,744 Climbing FlightAware ADS-B
Tue 06:59:03 AM 46.9470 5.3500 321° Northwest 431 496 26,100 1,462 Climbing FlightAware ADS-B
Tue 06:59:41 AM 47.0080 5.2790 322° Northwest 439 505 26,900 1,643 Climbing FlightAware ADS-B
Tue 07:00:27 AM 47.0790 5.1960 321° Northwest 436 502 28,400 1,814 Climbing FlightAware ADS-B
Tue 07:01:07 AM 47.1430 5.1190 321° Northwest 437 503 29,500 1,518 Climbing FlightAware ADS-B
Tue 07:01:50 AM 47.2100 5.0400 321° Northwest 441 507 30,500 1,518 Climbing FlightAware ADS-B
Tue 07:02:30 AM 47.2730 4.9650 321° Northwest 438 504 31,600 1,643 Climbing FlightAware ADS-B
Tue 07:03:14 AM 47.3420 4.8820 321° Northwest 434 499 32,800 1,395 Climbing FlightAware ADS-B
Tue 07:03:56 AM 47.4100 4.8020 321° Northwest 435 501 33,600 837 Climbing FlightAware ADS-B
Tue 07:04:40 AM 47.4770 4.7210 321° Northwest 441 507 34,000 300 Climbing FlightAware ADS-B
Tue 07:05:16 AM 47.5340 4.6520 321° Northwest 439 505 34,000  Level FlightAware ADS-B
Tue 07:06:02 AM 47.6060 4.5650 321° Northwest 437 503 34,000  Level FlightAware ADS-B
Tue 07:06:46 AM 47.6760 4.4800 321° Northwest 437 503 34,000  Level FlightAware ADS-B
Tue 07:07:22 AM 47.7280 4.4160 320° Northwest 437 503 34,000  Level FlightAware ADS-B
Tue 07:08:08 AM 47.8000 4.3290 321° Northwest 438 504 34,000  Level FlightAware ADS-B
Tue 07:08:48 AM 47.8670 4.2470 321° Northwest 439 505 34,000  Level FlightAware ADS-B
Tue 07:09:32 AM 47.9330 4.1650 320° Northwest 440 506 34,000  Level FlightAware ADS-B
Tue 07:10:16 AM 48.0050 4.0760 320° Northwest 441 507 34,000  Level FlightAware ADS-B
Tue 07:10:54 AM 48.0630 4.0040 320° Northwest 441 507 34,000  Level FlightAware ADS-B
Tue 07:11:28 AM 48.1180 3.9360 320° Northwest 442 509 34,000  Level FlightAware ADS-B
Tue 07:12:14 AM 48.1890 3.8490 321° Northwest 442 509 34,000  Level FlightAware ADS-B
Tue 07:12:38 AM 48.2310 3.8060 326° Northwest 443 510 34,000  Level FlightAware ADS-B
Tue 07:13:26 AM 48.3160 3.7360 331° Northwest 444 511 34,000  Level FlightAware ADS-B
Tue 07:14:06 AM 48.3850 3.6820 333° Northwest 444 511 34,000  Level FlightAware ADS-B
Tue 07:14:42 AM 48.4520 3.6280 332° Northwest 444 511 34,000  Level FlightAware ADS-B
Tue 07:15:28 AM 48.5350 3.5620 332° Northwest 444 511 34,000  Level FlightAware ADS-B
Tue 07:16:10 AM 48.6140 3.4990 332° Northwest 443 510 34,000  Level FlightAware ADS-B
Tue 07:16:48 AM 48.6800 3.4460 332° Northwest 443 510 34,000  Level FlightAware ADS-B
Tue 07:17:38 AM 48.7690 3.3750 332° Northwest 442 509 34,000  Level FlightAware ADS-B
Tue 07:18:12 AM 48.8330 3.3230 332° Northwest 442 509 34,000  Level FlightAware ADS-B
Tue 07:19:02 AM 48.9240 3.2490 332° Northwest 441 507 34,000  Level FlightAware ADS-B
Tue 07:19:40 AM 48.9900 3.1950 332° Northwest 441 507 34,000  Level FlightAware ADS-B
Tue 07:20:20 AM 49.0630 3.1360 332° Northwest 439 505 34,000  Level FlightAware ADS-B
Tue 07:21:08 AM 49.1490 3.0640 331° Northwest 437 503 34,000  Level FlightAware ADS-B
Tue 07:21:48 AM 49.2210 3.0050 332° Northwest 436 502 34,000  Level FlightAware ADS-B
Tue 07:22:32 AM 49.2980 2.9420 332° Northwest 436 502 34,000  Level FlightAware ADS-B
Tue 07:23:08 AM 49.3610 2.8890 331° Northwest 435 501 34,000  Level FlightAware ADS-B
Tue 07:23:50 AM 49.4340 2.8280 331° Northwest 436 502 34,000  Level FlightAware ADS-B
Tue 07:24:38 AM 49.5220 2.7540 331° Northwest 436 502 34,000  Level FlightAware ADS-B
Tue 07:25:18 AM 49.5930 2.6950 332° Northwest 437 503 34,000  Level FlightAware ADS-B
Tue 07:25:58 AM 49.6640 2.6350 331° Northwest 438 504 34,000  Level FlightAware ADS-B
Tue 07:26:44 AM 49.7450 2.5660 331° Northwest 439 505 34,000  Level FlightAware ADS-B
Tue 07:27:21 AM 49.8090 2.5120 331° Northwest 440 506 34,000  Level FlightAware ADS-B
Tue 07:27:25 AM 49.8198 2.5026 331° Northwest 466 536 34,000  Level FlightAware UK
Tue 07:28:07 AM 49.8940 2.4390 331° Northwest 441 507 34,000  Level FlightAware ADS-B
Tue 07:28:45 AM 49.9600 2.3830 331° Northwest 442 509 34,000  Level FlightAware ADS-B
Tue 07:29:33 AM 50.0450 2.3100 331° Northwest 443 510 34,000  Level FlightAware ADS-B
Tue 07:30:07 AM 50.1093 2.2546 331° Northwest 470 541 34,000  Level FlightAware UK
Tue 07:30:13 AM 50.1190 2.2460 331° Northwest 444 511 34,000  Level FlightAware ADS-B
Tue 07:30:51 AM 50.1870 2.1870 331° Northwest 444 511 34,000  Level FlightAware ADS-B
Tue 07:31:37 AM 50.2711 2.1148 331° Northwest 470 541 34,000  Level FlightAware UK
Tue 07:31:39 AM 50.2730 2.1130 331° Northwest 444 511 34,000  Level FlightAware ADS-B
Tue 07:32:17 AM 50.3410 2.0540 331° Northwest 444 511 34,000  Level FlightAware ADS-B
Tue 07:32:59 AM 50.4120 1.9760 325° Northwest 444 511 34,000  Level FlightAware ADS-B
Tue 07:33:41 AM 50.4770 1.8960 322° Northwest 442 509 34,000  Level FlightAware ADS-B
Tue 07:34:19 AM 50.5407 1.8156 322° Northwest 472 543 34,000  Level FlightAware UK
Tue 07:34:21 AM 50.5390 1.8180 322° Northwest 441 507 34,000  Level FlightAware ADS-B
Tue 07:35:05 AM 50.6100 1.7270 321° Northwest 441 507 34,000  Level FlightAware ADS-B
Tue 07:35:50 AM 50.6820 1.6370 322° Northwest 440 506 34,000  Level FlightAware ADS-B
Tue 07:36:30 AM 50.7460 1.5550 322° Northwest 440 506 34,000 -146 Level FlightAware ADS-B
Tue 07:36:31 AM 50.7496 1.5508 322° Northwest 466 536 33,900  Descending FlightAware UK
Tue 07:37:06 AM 50.8020 1.4840 321° Northwest 440 506 34,000  Climbing FlightAware ADS-B
Tue 07:37:49 AM 50.8723 1.3940 321° Northwest 466 536 33,900  Descending FlightAware UK
Tue 07:37:50 AM 50.8710 1.3960 321° Northwest 440 506 34,000 133 Climbing FlightAware ADS-B
Tue 07:38:34 AM 50.9410 1.3060 321° Northwest 441 507 34,000  Level FlightAware ADS-B
Tue 07:39:20 AM 51.0140 1.2120 321° Northwest 442 509 34,000  Level FlightAware ADS-B
Tue 07:40:00 AM 51.0770 1.1300 321° Northwest 442 509 34,000  Level FlightAware ADS-B
Tue 07:40:42 AM 51.1467 1.0396 321° Northwest 443 510 34,000  Level FlightAware ADS-B
Tue 07:41:14 AM 51.1973 0.9737 321° Northwest 443 510 34,000  Level FlightAware ADS-B
Tue 07:41:45 AM 51.2451 0.9111 321° Northwest 443 510 34,000  Level FlightAware ADS-B
Tue 07:42:15 AM 51.2928 0.8485 321° Northwest 443 510 34,000  Level FlightAware ADS-B
Tue 07:42:46 AM 51.3415 0.7845 321° Northwest 444 511 34,000  Level FlightAware ADS-B
Tue 07:43:16 AM 51.3896 0.7212 321° Northwest 445 512 34,000  Level FlightAware ADS-B
Tue 07:43:46 AM 51.4378 0.6575 321° Northwest 445 512 34,000  Level FlightAware ADS-B
Tue 07:44:17 AM 51.4854 0.5942 320° Northwest 443 510 34,000  Level FlightAware ADS-B
Tue 07:44:47 AM 51.5331 0.5308 320° Northwest 442 509 34,000  Level FlightAware ADS-B
Tue 07:45:17 AM 51.5810 0.4670 320° Northwest 442 509 34,000  Level FlightAware ADS-B
Tue 07:45:51 AM 51.6336 0.3966 320° Northwest 442 509 34,000  Level FlightAware ADS-B
Tue 07:46:21 AM 51.6812 0.3327 320° Northwest 441 507 34,000  Level FlightAware ADS-B
Tue 07:46:52 AM 51.7291 0.2683 320° Northwest 441 507 34,000  Level FlightAware ADS-B
Tue 07:47:22 AM 51.7763 0.2048 320° Northwest 441 507 34,000  Level FlightAware ADS-B
Tue 07:47:53 AM 51.8236 0.1407 320° Northwest 440 506 34,000  Level FlightAware ADS-B
Tue 07:48:23 AM 51.8703 0.0773 320° Northwest 441 507 34,000  Level FlightAware ADS-B
Tue 07:48:54 AM 51.9190 0.0113 320° Northwest 442 509 34,000  Level FlightAware ADS-B
Tue 07:49:25 AM 51.9679 -0.0536 321° Northwest 442 509 34,000  Level FlightAware ADS-B
Tue 07:49:59 AM 52.0206 -0.1248 320° Northwest 443 510 34,000  Level FlightAware ADS-B
Tue 07:50:29 AM 52.0686 -0.1884 321° Northwest 443 510 34,000  Level FlightAware ADS-B
Tue 07:51:00 AM 52.1170 -0.2528 321° Northwest 443 510 34,000  Level FlightAware ADS-B
Tue 07:51:30 AM 52.1656 -0.3176 321° Northwest 443 510 34,000  Level FlightAware ADS-B
Tue 07:52:02 AM 52.2151 -0.3842 321° Northwest 444 511 34,000  Level FlightAware ADS-B
Tue 07:52:33 AM 52.2651 -0.4507 321° Northwest 444 511 34,000  Level FlightAware ADS-B
Tue 07:53:03 AM 52.3128 -0.5141 321° Northwest 444 511 34,000  Level FlightAware ADS-B
Tue 07:53:33 AM 52.3606 -0.5778 321° Northwest 445 512 34,000  Level FlightAware ADS-B
Tue 07:54:05 AM 52.4111 -0.6464 320° Northwest 444 511 34,000  Level FlightAware ADS-B
Tue 07:54:39 AM 52.4628 -0.7214 319° Northwest 444 511 34,000  Level FlightAware ADS-B
Tue 07:55:10 AM 52.5104 -0.7909 318° Northwest 444 511 34,000  Level FlightAware ADS-B
Tue 07:55:41 AM 52.5575 -0.8599 318° Northwest 444 511 34,000  Level FlightAware ADS-B
Tue 07:56:12 AM 52.6057 -0.9305 318° Northwest 444 511 34,000  Level FlightAware ADS-B
Tue 07:56:43 AM 52.6531 -1.0005 318° Northwest 444 511 34,000  Level FlightAware ADS-B
Tue 07:57:42 AM 52.7400 -1.1280 318° Northwest 443 510 34,000  Level FlightAware ADS-B
Tue 07:58:24 AM 52.8060 -1.2250 318° Northwest 442 509 34,000  Level FlightAware ADS-B
Tue 07:59:07 AM 52.8690 -1.3180 318° Northwest 441 507 34,000  Level FlightAware ADS-B
Tue 07:59:46 AM 52.9319 -1.4102 319° Northwest 440 506 34,000  Level FlightAware ADS-B
Tue 08:00:20 AM 52.9834 -1.4861 318° Northwest 439 505 34,000  Level FlightAware ADS-B
Tue 08:01:14 AM 53.0610 -1.6020 318° Northwest 437 503 34,000  Level FlightAware ADS-B
Tue 08:01:52 AM 53.1215 -1.6916 318° Northwest 438 504 34,000  Level FlightAware ADS-B
Tue 08:02:22 AM 53.1672 -1.7599 318° Northwest 468 539 34,000  Level FlightAware UK
Tue 08:02:41 AM 53.1924 -1.8031 318° Northwest 435 501 34,000  Level FlightAware ADS-B
Tue 08:03:22 AM 53.2400 -1.9100 307° West 433 498 34,000  Level FlightAware ADS-B
Tue 08:04:00 AM 53.2820 -2.0160 304° West 434 499 34,000  Level FlightAware ADS-B
Tue 08:04:44 AM 53.3310 -2.1410 303° West 434 499 34,000  Level FlightAware ADS-B
Tue 08:05:23 AM 53.3730 -2.2510 303° West 434 499 34,000  Level FlightAware ADS-B
Tue 08:06:06 AM 53.4170 -2.3660 303° West 433 498 34,000  Level FlightAware ADS-B
Tue 08:06:49 AM 53.4650 -2.4930 302° West 433 498 34,000  Level FlightAware ADS-B
Tue 08:07:29 AM 53.5080 -2.6060 303° West 432 497 34,000  Level FlightAware ADS-B
Tue 08:08:17 AM 53.5580 -2.7360 303° West 432 497 34,000  Level FlightAware ADS-B
Tue 08:08:57 AM 53.6020 -2.8520 303° West 431 496 34,000  Level FlightAware ADS-B
Tue 08:09:41 AM 53.6490 -2.9780 302° West 432 497 34,000  Level FlightAware ADS-B
Tue 08:10:17 AM 53.6850 -3.0790 301° West 432 497 34,000  Level FlightAware ADS-B
Tue 08:10:52 AM 53.7224 -3.1857 301° West 462 532 34,000  Level FlightAware UK
Tue 08:10:57 AM 53.7260 -3.1950 301° West 433 498 34,000  Level FlightAware ADS-B
Tue 08:11:39 AM 53.7712 -3.3244 301° West 462 532 34,000  Level FlightAware UK
Tue 08:11:57 AM 53.7860 -3.3660 301° West 434 499 34,000  Level FlightAware ADS-B
Tue 08:12:37 AM 53.8280 -3.4860 301° West 434 499 34,000  Level FlightAware ADS-B
Tue 08:13:21 AM 53.8730 -3.6150 301° West 433 498 34,000 450 Level FlightAware ADS-B
Tue 08:13:57 AM 53.9090 -3.7190 300° West 432 497 34,600 975 Climbing FlightAware ADS-B
Tue 08:14:41 AM 53.9530 -3.8460 301° West 424 488 35,300 955 Climbing FlightAware ADS-B
Tue 08:15:25 AM 53.9960 -3.9730 300° West 419 482 36,000 512 Climbing FlightAware ADS-B
Tue 08:16:03 AM 54.0350 -4.0871 300° West 456 525 36,000  Level FlightAware UK
Tue 08:16:19 AM 54.0490 -4.1290 300° West 430 495 36,000  Level FlightAware ADS-B
Tue 08:16:51 AM 54.0828 -4.2283 300° West 462 532 36,000  Level FlightAware UK
Tue 08:16:59 AM 54.0890 -4.2480 300° West 439 505 36,000  Level FlightAware ADS-B
Tue 08:17:45 AM 54.1350 -4.3850 300° West 442 509 36,000  Level FlightAware ADS-B
Tue 08:18:27 AM 54.1800 -4.5170 300° West 440 506 36,000  Level FlightAware ADS-B
Tue 08:19:11 AM 54.2230 -4.6480 299° West 437 503 36,000  Level FlightAware ADS-B
Tue 08:19:53 AM 54.2630 -4.7680 300° West 436 502 36,000  Level FlightAware ADS-B
Tue 08:20:45 AM 54.3150 -4.9240 300° West 435 501 36,000  Level FlightAware ADS-B
Tue 08:21:27 AM 54.3582 -5.0563 300° West 468 539 36,000  Level FlightAware UK
Tue 08:21:31 AM 54.3610 -5.0660 300° West 435 501 36,000  Level FlightAware ADS-B
Tue 08:22:13 AM 54.4020 -5.1920 299° West 432 497 36,000  Level FlightAware ADS-B
Tue 08:22:52 AM 54.4370 -5.2990 299° West 413 475 36,000  Level FlightAware ADS-B
Tue 08:23:32 AM 54.4740 -5.4150 299° West 402 463 36,000  Level FlightAware ADS-B
Tue 08:24:12 AM 54.5100 -5.5240 300° West 391 450 36,000 -71 Level FlightAware ADS-B
Tue 08:24:57 AM 54.5501 -5.6509 300° West 432 497 35,900  Descending FlightAware UK
Tue 08:24:57 AM 54.5480 -5.6450 300° West 393 452 36,000 200 Climbing FlightAware ADS-B
Tue 08:25:27 AM 54.5764 -5.7332 300° West 436 502 36,000  Level FlightAware UK
Tue 08:25:42 AM 54.5890 -5.7720 300° West 397 457 36,000  Level FlightAware ADS-B
Tue 08:26:22 AM 54.6220 -5.8770 299° West 398 458 36,000  Level FlightAware ADS-B
Tue 08:26:57 AM 54.6558 -5.9839 299° West 442 509 36,000  Level FlightAware UK
Tue 08:27:02 AM 54.6580 -5.9900 299° West 401 461 36,000  Level FlightAware ADS-B
Tue 08:27:50 AM 54.7020 -6.1320 298° West 404 465 36,000  Level FlightAware ADS-B
Tue 08:28:28 AM 54.7360 -6.2400 299° West 405 466 36,000  Level FlightAware ADS-B
Tue 08:29:03 AM 54.7669 -6.3416 299° West 448 516 36,000  Level FlightAware UK
Tue 08:29:10 AM 54.7690 -6.3480 299° West 405 466 36,000  Level FlightAware ADS-B
Tue 08:29:50 AM 54.8060 -6.4660 299° West 406 467 36,000  Level FlightAware ADS-B
Tue 08:30:30 AM 54.8420 -6.5830 299° West 405 466 36,000  Level FlightAware ADS-B
Tue 08:30:33 AM 54.8464 -6.5979 299° West 448 516 36,000  Level FlightAware UK
Tue 08:31:03 AM 54.8722 -6.6835 299° West 442 509 36,000  Level FlightAware UK
Tue 08:31:15 AM 54.8820 -6.7140 299° West 402 463 36,000  Level FlightAware ADS-B
Tue 08:31:55 AM 54.9140 -6.8190 299° West 402 463 36,000  Level FlightAware ADS-B
Tue 08:32:03 AM 54.9243 -6.8534 299° West 442 509 36,000  Level FlightAware UK
Tue 08:32:33 AM 54.9501 -6.9386 299° West 442 509 36,000  Level FlightAware UK
Tue 08:32:40 AM 54.9530 -6.9500 299° West 401 461 36,000  Level FlightAware ADS-B
Tue 08:33:20 AM 54.9890 -7.0680 298° West 399 459 36,000  Level FlightAware ADS-B
Tue 08:34:03 AM 55.0265 -7.1932 298° West 440 506 36,000  Level FlightAware UK
Tue 08:34:20 AM 55.0400 -7.2370 298° West 394 453 36,000  Level FlightAware ADS-B
Tue 08:34:55 AM 55.0670 -7.3300 298° West 393 452 36,000  Level FlightAware ADS-B
Tue 08:35:03 AM 55.0762 -7.3611 298° West 436 502 36,000  Level FlightAware UK
Tue 08:35:38 AM 55.1059 -7.4607 298° West 430 495 36,000  Level FlightAware UK
Tue 08:35:42 AM 55.1080 -7.4680 298° West 382 440 36,000  Level FlightAware ADS-B
Tue 08:36:22 AM 55.1400 -7.5770 297° West 372 428 36,000  Level FlightAware ADS-B
Tue 08:37:02 AM 55.1710 -7.6830 297° West 368 423 36,000 -130 Level FlightAware ADS-B
Tue 08:37:08 AM 55.1772 -7.7026 297° West 418 481 35,900 -167 Descending FlightAware UK
Tue 08:37:38 AM 55.2005 -7.7823 297° West 416 479 35,900 154 Level FlightAware UK
Tue 08:37:47 AM 55.2060 -7.8030 297° West 365 420 36,000 111 Climbing FlightAware ADS-B
Tue 08:38:32 AM 55.2410 -7.9220 297° West 364 419 36,000  Level FlightAware ADS-B
Tue 08:39:07 AM 55.2680 -8.0140 297° West 365 420 36,000  Level FlightAware ADS-B
Tue 08:39:08 AM 55.2696 -8.0208 297° West 416 479 36,000 -194 Level FlightAware UK
Tue 08:39:38 AM 55.2926 -8.1006 297° West 414 476 35,900  Descending FlightAware UK
Tue 08:39:52 AM 55.3030 -8.1360 297° West 369 425 36,000 109 Climbing FlightAware ADS-B
Tue 08:40:33 AM 55.3340 -8.2440 297° West 366 421 36,000  Level FlightAware ADS-B
Tue 08:41:08 AM 55.3613 -8.3412 297° West 418 481 36,000  Level FlightAware UK
Tue 08:41:18 AM 55.3680 -8.3660 297° West 367 422 36,000  Level FlightAware ADS-B
Tue 08:41:59 AM 55.3990 -8.4750 297° West 368 423 36,000  Level FlightAware ADS-B
Tue 08:42:38 AM 55.4300 -8.5834 297° West 422 486 36,000  Level FlightAware UK
Tue 08:42:44 AM 55.4340 -8.5960 297° West 371 427 36,000  Level FlightAware ADS-B
Tue 08:43:24 AM 55.4640 -8.7050 296° West 372 428 36,000  Level FlightAware ADS-B
Tue 08:44:04 AM 55.4940 -8.8120 296° West 372 428 36,000  Level FlightAware ADS-B
Tue 08:44:44 AM 55.5255 -8.9242 296° West 422 486 36,000  Level FlightAware UK
Tue 08:44:49 AM 55.5290 -8.9360 296° West 372 428 36,000  Level FlightAware ADS-B
Tue 08:45:29 AM 55.5590 -9.0450 296° West 372 428 36,000  Level FlightAware ADS-B
Tue 08:46:07 AM 55.5870 -9.1470 296° West 372 428 36,000  Level FlightAware ADS-B
Tue 08:46:53 AM 55.6200 -9.2680 296° West 372 428 36,000  Level FlightAware ADS-B
Tue 08:47:53 AM 55.6660 -9.4370 296° West 370 426 36,000  Level FlightAware ADS-B
Tue 08:48:33 AM 55.6960 -9.5470 296° West 370 426 36,000  Level FlightAware ADS-B
Tue 08:49:14 AM 55.7250 -9.6560 295° West 369 425 36,000  Level FlightAware ADS-B
Tue 08:49:58 AM 55.7580 -9.7780 296° West 365 420 36,000  Level FlightAware ADS-B
Tue 08:50:33 AM 55.7830 -9.8730 295° West 368 423 36,000  Level FlightAware ADS-B
Tue 08:51:23 AM 55.8190 -10.0090 295° West 364 419 36,000  Level FlightAware ADS-B
Tue 08:52:03 AM 55.8480 -10.1170 296° West 363 418 36,000  Level FlightAware ADS-B
Tue 08:52:44 AM 55.8750 -10.2220 295° West 363 418 36,000  Level FlightAware ADS-B
Tue 08:53:28 AM 55.9080 -10.3460 295° West 362 417 36,000  Level FlightAware ADS-B
Tue 08:54:03 AM 55.9340 -10.4460 295° West 361 415 36,000  Level FlightAware ADS-B
Tue 08:54:53 AM 55.9690 -10.5810 295° West 362 417 36,000  Level FlightAware ADS-B
Tue 08:55:51 AM 56.0040 -10.7230 294° West 361 415 36,000  Level FlightAware ADS-B
Tue 08:56:27 AM 56.0240 -10.8080 293° West 361 415 36,000  Level FlightAware ADS-B
Tue 08:57:09 AM 56.0640 -10.9540 296° West 364 419 36,000  Level FlightAware ADS-B
Tue 08:57:49 AM 56.0920 -11.0620 295° West 363 418 36,000  Level FlightAware ADS-B
Tue 08:58:30 AM 56.1180 -11.1690 294° West 363 418 36,000  Level FlightAware ADS-B
Tue 08:59:00 AM 56.1400 -11.2560 294° West 363 418 36,000  Level FlightAware ADS-B
Tue 08:59:46 AM 56.1710 -11.3780 295° West 363 418 36,000  Level FlightAware ADS-B
Tue 09:00:25 AM 56.1980 -11.4870 294° West 363 418 36,000  Level FlightAware ADS-B
Tue 09:01:35 AM 56.2460 -11.6830 294° West 363 418 36,000  Level FlightAware ADS-B
Tue 09:02:20 AM 56.2740 -11.7970 294° West 363 418 36,000  Level FlightAware ADS-B
Tue 09:03:00 AM 56.3040 -11.9190 294° West 364 419 36,000  Level FlightAware ADS-B
Tue 09:03:40 AM 56.3300 -12.0270 294° West 364 419 36,000  Level FlightAware ADS-B
Tue 09:04:42 AM 56.3660 -12.1790 293° West 364 419 36,000  Level FlightAware ADS-B
Tue 09:05:18 AM 56.3860 -12.2640 293° West 364 419 36,000  Level FlightAware ADS-B
Tue 09:06:01 AM 56.4100 -12.3670 293° West 364 419 36,000  Level FlightAware ADS-B
Tue 09:06:39 AM 56.4310 -12.4570 293° West 364 419 36,000  Level FlightAware ADS-B
Tue 09:07:28 AM 56.4590 -12.5740 293° West 364 419 36,000  Level FlightAware ADS-B
Tue 09:08:03 AM 56.4780 -12.6580 292° West 364 419 36,000  Level FlightAware ADS-B
Tue 09:08:52 AM 56.5060 -12.7750 293° West 364 419 36,000  Level FlightAware ADS-B
Tue 09:09:29 AM 56.5260 -12.8630 292° West 364 419 36,000  Level FlightAware ADS-B
Tue 09:10:54 AM 56.5740 -13.0660 293° West 364 419 36,000  Level FlightAware ADS-B
Tue 09:11:55 AM 56.6080 -13.2120 293° West 364 419 36,000  Level FlightAware ADS-B
Tue 09:12:23 AM 56.6230 -13.2790 292° West 364 419 36,000  Level FlightAware ADS-B
Tue 09:13:10 AM 56.6500 -13.3920 294° West 364 419 36,000  Level FlightAware ADS-B
Tue 09:15:00 AM 56.6842 -13.7705 280° West  Level Estimated
Tue 09:16:00 AM 56.7024 -13.9772 279° West  Level Estimated
Tue 09:17:00 AM 56.7203 -14.1842 279° West  Level Estimated
Tue 09:18:00 AM 56.7378 -14.3913 279° West  Level Estimated
Tue 09:19:00 AM 56.7550 -14.5986 279° West  Level Estimated
Tue 09:20:00 AM 56.7718 -14.8061 278° West  Level Estimated
Tue 09:21:00 AM 56.7883 -15.0138 278° West  Level Estimated
Tue 09:22:00 AM 56.8044 -15.2217 278° West  Level Estimated
Tue 09:23:00 AM 56.8202 -15.4297 278° West  Level Estimated
Tue 09:24:00 AM 56.8354 -15.6349 278° West  Level Estimated
Tue 09:25:00 AM 56.8503 -15.8401 278° West  Level Estimated
Tue 09:26:00 AM 56.8648 -16.0456 277° West  Level Estimated
Tue 09:27:00 AM 56.8790 -16.2512 277° West  Level Estimated
Tue 09:28:00 AM 56.9375 -16.4325 301° West  Level FlightAware Approximate
Tue 09:29:00 AM 56.9956 -16.6143 300° West  Level FlightAware Approximate
Tue 09:30:00 AM 57.0535 -16.7968 300° West  Level FlightAware Approximate
Tue 09:31:00 AM 57.1111 -16.9798 300° West  Level FlightAware Approximate
Tue 09:32:00 AM 57.1685 -17.1633 300° West  Level FlightAware Approximate
Tue 09:33:00 AM 57.2256 -17.3475 300° West  Level FlightAware Approximate
Tue 09:34:00 AM 57.2825 -17.5322 300° West  Level FlightAware Approximate
Tue 09:35:00 AM 57.3390 -17.7175 300° West  Level FlightAware Approximate
Tue 09:36:00 AM 57.3953 -17.9033 299° West  Level FlightAware Approximate
Tue 09:37:00 AM 57.4513 -18.0897 299° West  Level FlightAware Approximate
Tue 09:38:00 AM 57.5070 -18.2767 299° West  Level FlightAware Approximate
Tue 09:39:00 AM 57.5625 -18.4643 299° West  Level FlightAware Approximate
Tue 09:40:00 AM 57.6176 -18.6524 299° West  Level FlightAware Approximate
Tue 09:41:00 AM 57.6725 -18.8411 299° West  Level FlightAware Approximate
Tue 09:42:00 AM 57.7271 -19.0304 298° West  Level FlightAware Approximate
Tue 09:43:00 AM 57.7815 -19.2202 298° West  Level FlightAware Approximate
Tue 09:44:00 AM 57.8355 -19.4106 298° West  Level FlightAware Approximate
Tue 09:45:00 AM 57.8893 -19.6016 298° West  Level FlightAware Approximate
Tue 09:46:00 AM 57.9428 -19.7932 298° West  Level FlightAware Approximate
Tue 09:47:00 AM 57.9959 -19.9853 298° West  Level FlightAware Approximate
Tue 09:47:00 AM 58.0000 -20.0000 285° West 407 468 36,000  Level ETMS Enhanced Traffic Management System
Tue 09:48:00 AM 58.0271 -20.1970 285° West  Level FlightAware Approximate
Tue 09:49:00 AM 58.0557 -20.4073 284° West  Level FlightAware Approximate
Tue 09:50:00 AM 58.0845 -20.6219 284° West  Level FlightAware Approximate
Tue 09:51:00 AM 58.1129 -20.8368 284° West  Level FlightAware Approximate
Tue 09:52:00 AM 58.1410 -21.0525 284° West  Level FlightAware Approximate
Tue 09:53:00 AM 58.1976 -21.4504 284° West 407 468 36,000  Level FlightAware Transoceanic
Tue 09:54:00 AM 58.2245 -21.6589 284° West 407 468 36,000  Level FlightAware Transoceanic
Tue 09:55:00 AM 58.2511 -21.8677 283° West 407 468 36,000  Level FlightAware Transoceanic
Tue 09:56:00 AM 58.2773 -22.0768 283° West 407 468 36,000  Level FlightAware Transoceanic
Tue 09:57:00 AM 58.3031 -22.2862 283° West 407 468 36,000  Level FlightAware Transoceanic
Tue 09:58:00 AM 58.3287 -22.4960 283° West 407 468 36,000  Level FlightAware Transoceanic
Tue 09:59:00 AM 58.3538 -22.7060 283° West 407 468 36,000  Level FlightAware Transoceanic
Tue 10:00:00 AM 58.3787 -22.9163 283° West 407 468 36,000  Level FlightAware Transoceanic
Tue 10:01:00 AM 58.4031 -23.1269 282° West 407 468 36,000  Level FlightAware Transoceanic
Tue 10:02:00 AM 58.4273 -23.3379 282° West 407 468 36,000  Level FlightAware Transoceanic
Tue 10:03:00 AM 58.4511 -23.5490 282° West 407 468 36,000  Level FlightAware Transoceanic
Tue 10:04:00 AM 58.4745 -23.7605 282° West 407 468 36,000  Level FlightAware Transoceanic
Tue 10:05:00 AM 58.4976 -23.9723 282° West 407 468 36,000  Level FlightAware Transoceanic
Tue 10:06:00 AM 58.5204 -24.1843 282° West 407 468 36,000  Level FlightAware Transoceanic
Tue 10:07:00 AM 58.5428 -24.3967 281° West 407 468 36,000  Level FlightAware Transoceanic
Tue 10:08:00 AM 58.5648 -24.6092 281° West 407 468 36,000  Level FlightAware Transoceanic
Tue 10:09:00 AM 58.5865 -24.8221 281° West 407 468 36,000  Level FlightAware Transoceanic
Tue 10:10:00 AM 58.6078 -25.0352 281° West 407 468 36,000  Level FlightAware Transoceanic
Tue 10:11:00 AM 58.6288 -25.2486 281° West 407 468 36,000  Level FlightAware Transoceanic
Tue 10:12:00 AM 58.6495 -25.4622 280° West 407 468 36,000  Level FlightAware Transoceanic
Tue 10:13:00 AM 58.6698 -25.6761 280° West 407 468 36,000  Level FlightAware Transoceanic
Tue 10:14:00 AM 58.6897 -25.8902 280° West 407 468 36,000  Level FlightAware Transoceanic
Tue 10:15:00 AM 58.7093 -26.1045 280° West 407 468 36,000  Level FlightAware Transoceanic
Tue 10:16:00 AM 58.7285 -26.3192 280° West 407 468 36,000  Level FlightAware Transoceanic
Tue 10:17:00 AM 58.7473 -26.5340 280° West 407 468 36,000  Level FlightAware Transoceanic
Tue 10:18:00 AM 58.7658 -26.7491 279° West 407 468 36,000  Level FlightAware Transoceanic
Tue 10:19:00 AM 58.7840 -26.9644 279° West 407 468 36,000  Level FlightAware Transoceanic
Tue 10:20:00 AM 58.8018 -27.1799 279° West 407 468 36,000  Level FlightAware Transoceanic
Tue 10:21:00 AM 58.8192 -27.3956 279° West 407 468 36,000  Level FlightAware Transoceanic
Tue 10:22:00 AM 58.8362 -27.6116 279° West 407 468 36,000  Level FlightAware Transoceanic
Tue 10:23:00 AM 58.8529 -27.8277 278° West 407 468 36,000  Level FlightAware Transoceanic
Tue 10:24:00 AM 58.8693 -28.0441 278° West 407 468 36,000  Level FlightAware Transoceanic
Tue 10:25:00 AM 58.8853 -28.2607 278° West 407 468 36,000  Level FlightAware Transoceanic
Tue 10:26:00 AM 58.9009 -28.4774 278° West 407 468 36,000  Level FlightAware Transoceanic
Tue 10:27:00 AM 58.9161 -28.6944 278° West 407 468 36,000  Level FlightAware Transoceanic
Tue 10:28:00 AM 58.9310 -28.9116 277° West 407 468 36,000  Level FlightAware Transoceanic
Tue 10:29:00 AM 58.9455 -29.1289 277° West 407 468 36,000  Level FlightAware Transoceanic
Tue 10:30:00 AM 58.9597 -29.3464 277° West 407 468 36,000  Level FlightAware Transoceanic
Tue 10:31:00 AM 58.9735 -29.5641 277° West 407 468 36,000  Level FlightAware Transoceanic
Tue 10:32:00 AM 58.9869 -29.7820 277° West 407 468 36,000  Level FlightAware Transoceanic
Tue 10:33:00 AM 59.0005 -30.0082 277° West  Level FlightAware Approximate
Tue 10:34:00 AM 59.0006 -30.0165 274° West  Level FlightAware Approximate
Tue 10:35:00 AM 59.0092 -30.2437 274° West  Level FlightAware Approximate
Tue 10:36:00 AM 59.0173 -30.4710 274° West  Level FlightAware Approximate
Tue 10:37:00 AM 59.0251 -30.6985 274° West  Level FlightAware Approximate
Tue 10:38:00 AM 59.0324 -30.9260 274° West  Level FlightAware Approximate
Tue 10:38:00 AM 59.0000 -30.0000 274° West 402 463 36,000  Level ETMS Enhanced Traffic Management System
Tue 10:39:00 AM 59.0394 -31.1537 273° West  Level FlightAware Approximate
Tue 10:40:00 AM 59.0459 -31.3814 273° West  Level FlightAware Approximate
Tue 10:41:00 AM 59.0521 -31.6077 273° West  Level FlightAware Approximate
Tue 10:42:00 AM 59.0578 -31.8342 273° West  Level FlightAware Approximate
Tue 10:43:00 AM 59.0631 -32.0607 273° West  Level FlightAware Approximate
Tue 10:44:00 AM 59.0655 -32.1703 272° West 402 463 36,000  Level FlightAware Transoceanic
Tue 10:45:00 AM 59.0701 -32.3877 272° West 402 463 36,000  Level FlightAware Transoceanic
Tue 10:46:00 AM 59.0743 -32.6053 272° West 402 463 36,000  Level FlightAware Transoceanic
Tue 10:47:00 AM 59.0781 -32.8228 272° West 402 463 36,000  Level FlightAware Transoceanic
Tue 10:48:00 AM 59.0816 -33.0404 272° West 402 463 36,000  Level FlightAware Transoceanic
Tue 10:49:00 AM 59.0847 -33.2580 271° West 402 463 36,000  Level FlightAware Transoceanic
Tue 10:50:00 AM 59.0874 -33.4757 271° West 402 463 36,000  Level FlightAware Transoceanic
Tue 10:51:00 AM 59.0898 -33.6934 271° West 402 463 36,000  Level FlightAware Transoceanic
Tue 10:52:00 AM 59.0918 -33.9111 271° West 402 463 36,000  Level FlightAware Transoceanic
Tue 10:53:00 AM 59.0934 -34.1289 271° West 402 463 36,000  Level FlightAware Transoceanic
Tue 10:54:00 AM 59.0947 -34.3466 271° West 402 463 36,000  Level FlightAware Transoceanic
Tue 10:55:00 AM 59.0956 -34.5644 270° West 402 463 36,000  Level FlightAware Transoceanic
Tue 10:56:00 AM 59.0962 -34.7822 270° West 402 463 36,000  Level FlightAware Transoceanic
Tue 10:57:00 AM 59.0964 -35.0000 270° West 402 463 36,000  Level FlightAware Transoceanic
Tue 10:58:00 AM 59.0962 -35.2178 270° West 402 463 36,000  Level FlightAware Transoceanic
Tue 10:59:00 AM 59.0956 -35.4356 270° West 402 463 36,000  Level FlightAware Transoceanic
Tue 11:00:00 AM 59.0947 -35.6534 269° West 402 463 36,000  Level FlightAware Transoceanic
Tue 11:01:00 AM 59.0934 -35.8711 269° West 402 463 36,000  Level FlightAware Transoceanic
Tue 11:02:00 AM 59.0918 -36.0889 269° West 402 463 36,000  Level FlightAware Transoceanic
Tue 11:02:37 AM 59.1000 -35.8167 268° West 410 472 36,000  Level Gander Center
Tue 11:03:00 AM 59.0898 -36.3066 269° West 402 463 36,000  Level FlightAware Transoceanic
Tue 11:03:37 AM 59.1167 -36.0500 278° West 420 483 36,000  Level Gander Center
Tue 11:04:00 AM 59.0874 -36.5243 269° West 402 463 36,000  Level FlightAware Transoceanic
Tue 11:04:37 AM 59.1000 -36.2500 261° West 420 483 36,000  Level Gander Center
Tue 11:05:00 AM 59.0847 -36.7420 269° West 402 463 36,000  Level FlightAware Transoceanic
Tue 11:05:37 AM 59.1167 -36.4833 278° West 420 483 36,000  Level Gander Center
Tue 11:06:00 AM 59.0816 -36.9596 268° West 402 463 36,000  Level FlightAware Transoceanic
Tue 11:06:37 AM 59.1000 -36.7000 262° West 420 483 36,000  Level Gander Center
Tue 11:07:00 AM 59.0781 -37.1772 268° West 402 463 36,000  Level FlightAware Transoceanic
Tue 11:07:37 AM 59.1000 -36.9500 270° West 420 483 36,000  Level Gander Center
Tue 11:08:00 AM 59.0743 -37.3947 268° West 402 463 36,000  Level FlightAware Transoceanic
Tue 11:08:37 AM 59.1000 -37.1833 270° West 430 495 36,000  Level Gander Center
Tue 11:09:37 AM 59.1000 -37.3833 270° West 430 495 36,000  Level Gander Center
Tue 11:10:37 AM 59.0833 -37.6333 263° West 430 495 36,000  Level Gander Center
Tue 11:11:37 AM 59.0833 -37.8333 270° West 430 495 36,000  Level Gander Center
Tue 11:12:37 AM 59.0833 -38.0833 270° West 430 495 36,000  Level Gander Center
Tue 11:13:37 AM 59.0667 -38.3167 262° West 430 495 36,000  Level Gander Center
Tue 11:14:37 AM 59.0667 -38.5167 270° West 430 495 36,000  Level Gander Center
Tue 11:15:37 AM 59.0667 -38.7667 270° West 430 495 36,000  Level Gander Center
Tue 11:16:37 AM 59.0500 -39.0000 262° West 430 495 36,000  Level Gander Center
Tue 11:17:37 AM 59.0500 -39.2333 270° West 430 495 36,000  Level Gander Center
Tue 11:18:37 AM 59.0333 -39.4500 262° West 430 495 36,000  Level Gander Center
Tue 11:19:37 AM 59.0333 -39.7000 270° West 440 506 36,000  Level Gander Center
Tue 11:20:37 AM 59.0167 -39.9333 262° West 440 506 36,000  Level Gander Center
Tue 11:21:37 AM 58.9833 -40.1667 255° West 440 506 36,000  Level Gander Center
Tue 11:22:00 AM 59.0000 -40.0000 254° West 433 498 36,000  Level ETMS Enhanced Traffic Management System
Tue 11:22:37 AM 58.9500 -40.3833 254° West 440 506 36,000  Level Gander Center
Tue 11:23:37 AM 58.9167 -40.6000 253° West 440 506 36,000  Level Gander Center
Tue 11:24:37 AM 58.8833 -40.8167 254° West 450 518 36,000  Level Gander Center
Tue 11:25:37 AM 58.8500 -41.0333 254° West 450 518 36,000  Level Gander Center
Tue 11:26:37 AM 58.8000 -41.3000 250° West 450 518 36,000  Level Gander Center
Tue 11:27:37 AM 58.7667 -41.5167 254° West 460 529 36,000  Level Gander Center
Tue 11:28:37 AM 58.7333 -41.7333 254° West 460 529 36,000  Level Gander Center
Tue 11:29:37 AM 58.7000 -41.9833 256° West 460 529 36,000  Level Gander Center
Tue 11:30:37 AM 58.6500 -42.2167 248° West 460 529 36,000  Level Gander Center
Tue 11:31:37 AM 58.6167 -42.4333 254° West 460 529 36,000  Level Gander Center
Tue 11:32:37 AM 58.5833 -42.6833 256° West 460 529 36,000  Level Gander Center
Tue 11:33:37 AM 58.5333 -42.9000 246° West 450 518 36,000  Level Gander Center
Tue 11:34:37 AM 58.5000 -43.1167 254° West 450 518 36,000  Level Gander Center
Tue 11:35:37 AM 58.4500 -43.3333 246° West 450 518 36,000  Level Gander Center
Tue 11:36:37 AM 58.4167 -43.5833 256° West 450 518 36,000  Level Gander Center
Tue 11:37:37 AM 58.3667 -43.7667 243° Southwest 450 518 36,000  Level Gander Center
Tue 11:38:37 AM 58.3333 -44.0167 256° West 450 518 36,000  Level Gander Center
Tue 11:39:37 AM 58.2833 -44.2333 246° West 450 518 36,000  Level Gander Center
Tue 11:40:38 AM 58.2333 -44.4833 249° West 450 518 36,000  Level Gander Center
Tue 11:41:38 AM 58.2000 -44.6500 249° West 460 529 36,000  Level Gander Center
Tue 11:42:38 AM 58.1667 -44.9000 256° West 460 529 36,000  Level Gander Center
Tue 11:43:38 AM 58.1167 -45.1167 246° West 460 529 36,000  Level Gander Center
Tue 11:44:38 AM 58.0833 -45.3167 253° West 460 529 36,000  Level Gander Center
Tue 11:45:38 AM 58.0167 -45.5667 243° Southwest 460 529 36,000  Level Gander Center
Tue 11:46:38 AM 57.9833 -45.7833 254° West 460 529 36,000  Level Gander Center
Tue 11:47:38 AM 57.9333 -46.0000 247° West 450 518 36,000  Level Gander Center
Tue 11:48:38 AM 57.9000 -46.2333 255° West 450 518 36,000  Level Gander Center
Tue 11:49:38 AM 57.8333 -46.4500 240° Southwest 450 518 36,000  Level Gander Center
Tue 11:50:38 AM 57.7833 -46.6500 245° Southwest 450 518 36,000  Level Gander Center
Tue 11:51:38 AM 57.7500 -46.8667 254° West 450 518 36,000  Level Gander Center
Tue 11:52:38 AM 57.7000 -47.0667 245° Southwest 450 518 36,000  Level Gander Center
Tue 11:53:38 AM 57.6667 -47.3167 256° West 450 518 36,000  Level Gander Center
Tue 11:54:38 AM 57.6000 -47.5167 238° Southwest 450 518 36,000  Level Gander Center
Tue 11:55:38 AM 57.5500 -47.7333 247° West 450 518 36,000  Level Gander Center
Tue 11:56:38 AM 57.5000 -47.9333 245° Southwest 450 518 36,000  Level Gander Center
Tue 11:57:38 AM 57.4667 -48.1333 253° West 450 518 36,000  Level Gander Center
Tue 11:58:38 AM 57.4167 -48.3833 250° West 450 518 36,000  Level Gander Center
Tue 11:59:38 AM 57.3667 -48.5833 245° Southwest 450 518 36,000  Level Gander Center
Tue 12:00:38 PM 57.3000 -48.7833 238° Southwest 450 518 36,000  Level Gander Center
Tue 12:01:38 PM 57.2500 -49.0000 247° West 450 518 36,000  Level Gander Center
Tue 12:02:38 PM 57.2167 -49.2333 255° West 450 518 36,000  Level Gander Center
Tue 12:03:38 PM 57.1667 -49.4333 245° Southwest 450 518 36,000  Level Gander Center
Tue 12:04:38 PM 57.1167 -49.6333 245° Southwest 450 518 36,000  Level Gander Center
Tue 12:05:38 PM 57.0500 -49.8333 239° Southwest 450 518 36,000  Level Gander Center
Tue 12:06:30 PM 57.0167 -50.0333 253° West 450 518 36,000  Level Gander Center
Tue 12:07:30 PM 56.9833 -50.2500 254° West 450 518 36,000  Level Gander Center
Tue 12:08:30 PM 56.9333 -50.4500 245° Southwest 450 518 36,000  Level Gander Center
Tue 12:10:00 PM 57.0000 -50.0000 252° West 454 522 36,000  Level ETMS Enhanced Traffic Management System
Tue 12:16:00 PM 56.5928 -52.1833 250° West 454 522 36,000  Level FlightAware Transoceanic
Tue 12:17:00 PM 56.5500 -52.3989 250° West 454 522 36,000  Level FlightAware Transoceanic
Tue 12:18:00 PM 56.5068 -52.6141 250° West 454 522 36,000  Level FlightAware Transoceanic
Tue 12:19:00 PM 56.4632 -52.8288 250° West 454 522 36,000  Level FlightAware Transoceanic
Tue 12:20:00 PM 56.4193 -53.0430 250° West 454 522 36,000  Level FlightAware Transoceanic
Tue 12:21:00 PM 56.3750 -53.2568 249° West 454 522 36,000  Level FlightAware Transoceanic
Tue 12:22:00 PM 56.3304 -53.4700 249° West 454 522 36,000  Level FlightAware Transoceanic
Tue 12:23:00 PM 56.2854 -53.6827 249° West 454 522 36,000  Level FlightAware Transoceanic
Tue 12:24:00 PM 56.2400 -53.8949 249° West 454 522 36,000  Level FlightAware Transoceanic
Tue 12:25:00 PM 56.1943 -54.1066 249° West 454 522 36,000  Level FlightAware Transoceanic
Tue 12:26:00 PM 56.1482 -54.3178 249° West 454 522 36,000  Level FlightAware Transoceanic
Tue 12:27:00 PM 56.1017 -54.5285 248° West 454 522 36,000  Level FlightAware Transoceanic
Tue 12:28:00 PM 56.0549 -54.7387 248° West 454 522 36,000  Level FlightAware Transoceanic
Tue 12:29:00 PM 56.0077 -54.9484 248° West 454 522 36,000  Level FlightAware Transoceanic
Tue 12:30:00 PM 55.9602 -55.1576 248° West 454 522 36,000  Level FlightAware Transoceanic
Tue 12:31:00 PM 55.9123 -55.3662 248° West 454 522 36,000  Level FlightAware Transoceanic
Tue 12:32:00 PM 55.8641 -55.5743 247° West 454 522 36,000  Level FlightAware Transoceanic
Tue 12:33:00 PM 55.8155 -55.7820 247° West 454 522 36,000  Level FlightAware Transoceanic
Tue 12:34:00 PM 55.7665 -55.9890 247° West 454 522 36,000  Level FlightAware Transoceanic
Tue 12:34:29 PM 55.7833 -55.8667 240° Southwest 430 495 36,000  Level Gander Center
Tue 12:35:00 PM 55.7172 -56.1956 247° West 454 522 36,000  Level FlightAware Transoceanic
Tue 12:35:29 PM 55.7500 -56.0500 252° West 430 495 36,000  Level Gander Center
Tue 12:36:00 PM 55.6676 -56.4017 247° West 454 522 36,000  Level FlightAware Transoceanic
Tue 12:36:29 PM 55.7000 -56.2333 244° Southwest 430 495 36,000  Level Gander Center
Tue 12:37:00 PM 55.6176 -56.6072 247° West 454 522 36,000  Level FlightAware Transoceanic
Tue 12:37:29 PM 55.6500 -56.4500 248° West 430 495 36,000  Level Gander Center
Tue 12:38:00 PM 55.5673 -56.8122 246° West 454 522 36,000  Level FlightAware Transoceanic
Tue 12:38:29 PM 55.6000 -56.6333 244° Southwest 440 506 36,000  Level Gander Center
Tue 12:39:00 PM 55.5109 -56.9842 240° Southwest  Level FlightAware Approximate
Tue 12:39:29 PM 55.5000 -56.8333 229° Southwest 440 506 36,000  Level Gander Center
Tue 12:40:29 PM 55.4500 -56.9833 240° Southwest 440 506 36,000  Level Gander Center
Tue 12:41:29 PM 55.3667 -57.1667 231° Southwest 440 506 36,000  Level Gander Center
Tue 12:42:29 PM 55.2833 -57.3500 231° Southwest 450 518 36,000  Level Gander Center
Tue 12:43:29 PM 55.2167 -57.5000 232° Southwest 450 518 36,000  Level Gander Center
Tue 12:44:29 PM 55.1333 -57.6833 232° Southwest 450 518 36,000  Level Gander Center
Tue 12:45:29 PM 55.0500 -57.8667 232° Southwest 440 506 36,000  Level Gander Center
Tue 12:46:29 PM 54.9667 -58.0167 226° Southwest 440 506 36,000  Level Gander Center
Tue 12:47:29 PM 54.9167 -58.1667 240° Southwest 430 495 36,000 50 Level Gander Center
Tue 12:48:29 PM 54.8333 -58.3500 232° Southwest 430 495 36,100 500 Climbing Gander Center
Tue 12:49:29 PM 54.7500 -58.5000 226° Southwest 440 506 37,000 900 Climbing Gander Center
Tue 12:50:29 PM 54.6667 -58.6833 232° Southwest 430 495 37,900 645 Climbing Gander Center
Tue 12:51:02 PM 54.6333 -58.7667 235° Southwest 430 495 38,000 71 Climbing Moncton Center
Tue 12:51:53 PM 54.5833 -58.8833 234° Southwest 440 506 38,000  Level Gander Center
Tue 12:52:53 PM 54.5000 -59.0333 226° Southwest 440 506 38,000  Level Gander Center
Tue 12:53:53 PM 54.4167 -59.2167 232° Southwest 440 506 38,000  Level Gander Center
Tue 12:54:29 PM 54.3667 -59.3000 224° Southwest 440 506 38,000  Level Gander Center
Tue 12:55:29 PM 54.2833 -59.4833 232° Southwest 440 506 38,000  Level Gander Center
Tue 12:56:29 PM 54.2000 -59.6167 223° Southwest 440 506 38,000  Level Gander Center
Tue 12:57:29 PM 54.1167 -59.8000 232° Southwest 440 506 38,000  Level Gander Center
Tue 12:58:29 PM 54.0333 -59.9500 227° Southwest 440 506 38,000  Level Gander Center
Tue 12:59:29 PM 53.9667 -60.1167 236° Southwest 440 506 38,000  Level Gander Center
Tue 01:00:29 PM 53.9000 -60.2667 233° Southwest 440 506 38,000  Level Gander Center
Tue 01:01:29 PM 53.8167 -60.4333 230° Southwest 440 506 38,000  Level Gander Center
Tue 01:02:29 PM 53.7333 -60.5833 227° Southwest 440 506 38,000  Level Gander Center
Tue 01:03:29 PM 53.6500 -60.7500 230° Southwest 440 506 38,000  Level Gander Center
Tue 01:04:29 PM 53.5667 -60.8833 224° Southwest 440 506 38,000  Level Gander Center
Tue 01:05:29 PM 53.4833 -61.0500 230° Southwest 430 495 38,000  Level Gander Center
Tue 01:06:29 PM 53.4167 -61.2000 233° Southwest 430 495 38,000  Level Gander Center
Tue 01:07:29 PM 53.3333 -61.3667 230° Southwest 430 495 38,000  Level Gander Center
Tue 01:08:29 PM 53.2500 -61.5000 224° Southwest 430 495 38,000  Level Gander Center
Tue 01:09:29 PM 53.1833 -61.6500 233° Southwest 430 495 38,000  Level Gander Center
Tue 01:10:29 PM 53.1000 -61.7833 224° Southwest 430 495 38,000  Level Gander Center
Tue 01:11:29 PM 53.0167 -61.9500 230° Southwest 430 495 38,000  Level Gander Center
Tue 01:12:29 PM 52.9333 -62.0833 224° Southwest 430 495 38,000  Level Gander Center
Tue 01:13:29 PM 52.8500 -62.2167 224° Southwest 430 495 38,000  Level Gander Center
Tue 01:14:29 PM 52.7667 -62.3833 230° Southwest 430 495 38,000  Level Gander Center
Tue 01:15:29 PM 52.6833 -62.5167 224° Southwest 420 483 38,000  Level Gander Center
Tue 01:16:29 PM 52.6000 -62.6667 228° Southwest 420 483 38,000  Level Gander Center
Tue 01:17:02 PM 52.5833 -62.7500 252° West 420 483 38,000  Level Moncton Center
Tue 01:18:02 PM 52.5000 -62.8833 224° Southwest 420 483 38,000  Level Moncton Center
Tue 01:19:02 PM 52.4167 -63.0333 228° Southwest 420 483 38,000 100 Level Moncton Center
Tue 01:20:02 PM 52.3333 -63.1667 224° Southwest 420 483 38,200 450 Climbing Moncton Center
Tue 01:21:02 PM 52.2500 -63.3000 224° Southwest 420 483 38,900 400 Climbing Moncton Center
Tue 01:22:02 PM 52.1667 -63.4500 228° Southwest 420 483 39,000 50 Climbing Moncton Center
Tue 01:23:02 PM 52.0833 -63.5833 225° Southwest 420 483 39,000  Level Moncton Center
Tue 01:24:02 PM 52.0000 -63.7167 225° Southwest 420 483 39,000  Level Moncton Center
Tue 01:25:02 PM 51.9333 -63.8500 231° Southwest 420 483 39,000  Level Moncton Center
Tue 01:26:02 PM 51.8500 -64.0167 231° Southwest 430 495 39,000  Level Moncton Center
Tue 01:27:02 PM 51.7667 -64.1500 225° Southwest 430 495 39,000  Level Moncton Center
Tue 01:28:02 PM 51.6833 -64.2833 225° Southwest 430 495 39,000  Level Moncton Center
Tue 01:29:02 PM 51.6000 -64.4167 225° Southwest 430 495 39,000  Level Moncton Center
Tue 01:30:02 PM 51.5167 -64.5667 228° Southwest 430 495 39,000  Level Moncton Center
Tue 01:31:02 PM 51.4333 -64.7000 225° Southwest 430 495 39,000  Level Moncton Center
Tue 01:32:02 PM 51.3500 -64.8333 225° Southwest 420 483 39,000  Level Moncton Center
Tue 01:33:02 PM 51.2667 -64.9667 225° Southwest 420 483 39,000  Level Moncton Center
Tue 01:34:02 PM 51.1833 -65.0833 221° Southwest 420 483 39,000  Level Moncton Center
Tue 01:35:02 PM 51.1000 -65.2167 225° Southwest 420 483 39,000  Level Moncton Center
Tue 01:36:02 PM 51.0333 -65.3500 232° Southwest 420 483 39,000  Level Moncton Center
Tue 01:37:02 PM 50.9500 -65.4833 225° Southwest 420 483 39,000  Level Moncton Center
Tue 01:38:02 PM 50.8500 -65.6167 220° Southwest 410 472 39,000  Level Moncton Center
Tue 01:39:02 PM 50.7667 -65.7500 225° Southwest 410 472 39,000  Level Moncton Center
Tue 01:40:02 PM 50.6833 -65.8833 225° Southwest 410 472 39,000  Level Moncton Center
Tue 01:41:02 PM 50.6167 -66.0000 228° Southwest 410 472 39,000  Level Moncton Center
Tue 01:42:02 PM 50.5333 -66.1333 226° Southwest 410 472 39,000  Level Moncton Center
Tue 01:43:02 PM 50.4500 -66.2667 226° Southwest 410 472 39,000  Level Moncton Center
Tue 01:44:02 PM 50.3667 -66.3833 222° Southwest 410 472 39,000  Level Moncton Center
Tue 01:45:02 PM 50.3000 -66.5000 228° Southwest 410 472 39,000  Level Moncton Center
Tue 01:46:02 PM 50.1833 -66.6667 222° Southwest 410 472 39,000  Level Moncton Center
Tue 01:47:02 PM 50.1333 -66.7167 213° Southwest 410 472 39,000  Level Moncton Center
Tue 01:47:36 PM 50.0667 -66.8000 219° Southwest 410 472 39,000  Level Montreal Center
Tue 01:48:36 PM 50.0000 -66.9167 228° Southwest 410 472 39,000  Level Montreal Center
Tue 01:49:36 PM 49.9000 -67.0500 221° Southwest 410 472 39,000  Level Montreal Center
Tue 01:50:36 PM 49.8333 -67.1667 228° Southwest 410 472 39,000 226 Level Montreal Center
Tue 01:54:02 PM 49.5333 -67.6167 224° Southwest 400 460 40,000  Climbing Moncton Center
Tue 01:55:02 PM 49.4833 -67.7500 240° Southwest 400 460 39,000 -638 Descending Moncton Center
Tue 01:55:36 PM 49.4167 -67.7833 198° South 400 460 39,000 -64 Level Montreal Center
Tue 01:56:36 PM 49.3333 -67.8833 218° Southwest 400 460 38,900  Descending Montreal Center
Tue 01:57:36 PM 49.2500 -68.0167 226° Southwest 390 449 39,000 50 Climbing Montreal Center
Tue 01:58:36 PM 49.2000 -68.1333 237° Southwest 390 449 39,000  Level Montreal Center
Tue 01:59:36 PM 49.1167 -68.2833 230° Southwest 400 460 39,000  Level Montreal Center
Tue 02:00:36 PM 49.0500 -68.3833 225° Southwest 400 460 39,000  Level Montreal Center
Tue 02:01:36 PM 48.9500 -68.5167 221° Southwest 400 460 39,000  Level Montreal Center
Tue 02:07:15 PM 48.5080 -69.1880 221° Southwest 405 466 39,000  Level FlightAware ADS-B
Tue 02:07:55 PM 48.4540 -69.2650 223° Southwest 406 467 39,000  Level FlightAware ADS-B
Tue 02:08:40 PM 48.3900 -69.3540 223° Southwest 391 450 39,000  Level FlightAware ADS-B
Tue 02:09:20 PM 48.3420 -69.4200 222° Southwest 375 432 39,000  Level FlightAware ADS-B
Tue 02:10:31 PM 48.2600 -69.5350 223° Southwest 366 421 39,000  Level FlightAware ADS-B
Tue 02:11:10 PM 48.2020 -69.6160 223° Southwest 382 440 39,000  Level FlightAware ADS-B
Tue 02:11:50 PM 48.1490 -69.6890 223° Southwest 380 437 39,000  Level FlightAware ADS-B
Tue 02:12:35 PM 48.0950 -69.7630 222° Southwest 383 441 39,000  Level FlightAware ADS-B
Tue 02:13:20 PM 48.0350 -69.8450 222° Southwest 383 441 39,000  Level FlightAware ADS-B
Tue 02:13:55 PM 47.9870 -69.9110 223° Southwest 373 429 39,000  Level FlightAware ADS-B
Tue 02:14:40 PM 47.9320 -69.9860 222° Southwest 368 423 39,000  Level FlightAware ADS-B
Tue 02:15:20 PM 47.8790 -70.0580 222° Southwest 368 423 39,000  Level FlightAware ADS-B
Tue 02:16:05 PM 47.8230 -70.1340 222° Southwest 370 426 39,000  Level FlightAware ADS-B
Tue 02:16:50 PM 47.7660 -70.2110 222° Southwest 371 427 39,000  Level FlightAware ADS-B
Tue 02:17:45 PM 47.6970 -70.3050 223° Southwest 373 429 39,000  Level FlightAware ADS-B
Tue 02:18:26 PM 47.6420 -70.3780 222° Southwest 382 440 39,000  Level FlightAware ADS-B
Tue 02:19:06 PM 47.5890 -70.4490 222° Southwest 385 443 39,000  Level FlightAware ADS-B
Tue 02:19:46 PM 47.5370 -70.5190 222° Southwest 387 445 39,000  Level FlightAware ADS-B
Tue 02:20:46 PM 47.4580 -70.6240 222° Southwest 390 449 39,000  Level FlightAware ADS-B
Tue 02:21:41 PM 47.3830 -70.7230 222° Southwest 393 452 39,000  Level FlightAware ADS-B
Tue 02:22:26 PM 47.3220 -70.8030 222° Southwest 397 457 39,000  Level FlightAware ADS-B
Tue 02:23:06 PM 47.2670 -70.8760 222° Southwest 400 460 39,000  Level FlightAware ADS-B
Tue 02:23:51 PM 47.2060 -70.9570 222° Southwest 400 460 39,000  Level FlightAware ADS-B
Tue 02:24:26 PM 47.1580 -71.0200 222° Southwest 400 460 39,000  Level FlightAware ADS-B
Tue 02:25:11 PM 47.0960 -71.1000 221° Southwest 400 460 39,000  Level FlightAware ADS-B
Tue 02:25:56 PM 47.0350 -71.1800 222° Southwest 402 463 39,000  Level FlightAware ADS-B
Tue 02:26:36 PM 46.9790 -71.2520 221° Southwest 403 464 39,000  Level FlightAware ADS-B
Tue 02:27:21 PM 46.9150 -71.3350 222° Southwest 405 466 39,000  Level FlightAware ADS-B
Tue 02:27:56 PM 46.8680 -71.3950 221° Southwest 394 453 39,000  Level FlightAware ADS-B
Tue 02:28:41 PM 46.8090 -71.4710 221° Southwest 388 447 39,000  Level FlightAware ADS-B
Tue 02:29:26 PM 46.7470 -71.5500 221° Southwest 386 444 39,000  Level FlightAware ADS-B
Tue 02:30:06 PM 46.6930 -71.6200 222° Southwest 386 444 39,000 -825 Level FlightAware ADS-B
Tue 02:30:46 PM 46.6400 -71.6870 221° Southwest 394 453 37,900 -1,650 Descending FlightAware ADS-B
Tue 02:31:26 PM 46.5830 -71.7580 221° Southwest 405 466 36,800 -1,467 Descending FlightAware ADS-B
Tue 02:32:16 PM 46.5120 -71.8450 220° Southwest 403 464 35,700 -1,333 Descending FlightAware ADS-B
Tue 02:32:56 PM 46.4550 -71.9140 220° Southwest 407 468 34,800 -1,575 Descending FlightAware ADS-B
Tue 02:33:36 PM 46.3960 -71.9850 220° Southwest 417 480 33,600 -1,650 Descending FlightAware ADS-B
Tue 02:34:16 PM 46.3380 -72.0560 220° Southwest 419 482 32,600 -1,976 Descending FlightAware ADS-B
Tue 02:35:01 PM 46.2710 -72.1360 220° Southwest 413 475 30,800 -2,471 Descending FlightAware ADS-B
Tue 02:35:41 PM 46.2140 -72.2050 220° Southwest 404 465 29,100 -2,541 Descending FlightAware ADS-B
Tue 02:36:26 PM 46.1500 -72.2810 219° Southwest 394 453 27,200 -2,118 Descending FlightAware ADS-B
Tue 02:37:06 PM 46.0950 -72.3480 220° Southwest 374 430 26,100 -1,725 Descending FlightAware ADS-B
Tue 02:37:46 PM 46.0460 -72.4070 220° Southwest 362 417 24,900 -2,047 Descending FlightAware ADS-B
Tue 02:38:31 PM 45.9870 -72.4760 219° Southwest 355 409 23,200 -2,118 Descending FlightAware ADS-B
Tue 02:39:11 PM 45.9370 -72.5360 220° Southwest 346 398 21,900 -1,575 Descending FlightAware ADS-B
Tue 02:39:51 PM 45.8890 -72.5930 220° Southwest 326 375 21,100 -675 Descending FlightAware ADS-B
Tue 02:40:31 PM 45.8440 -72.6450 219° Southwest 311 358 21,000 -424 Descending FlightAware ADS-B
Tue 02:41:16 PM 45.7940 -72.7040 219° Southwest 313 360 20,500 -1,133 Descending FlightAware ADS-B
Tue 02:42:01 PM 45.7500 -72.7680 225° Southwest 301 346 19,300 -1,500 Descending FlightAware ADS-B
Tue 02:42:16 PM 45.7430 -72.7960 250° West 299 344 19,000 -1,831 Descending FlightAware ADS-B
Tue 02:43:00 PM 45.7330 -72.8810 260° West 293 337 17,500 -1,953 Descending FlightAware ADS-B
Tue 02:43:42 PM 45.7250 -72.9610 262° West 288 331 16,200 -1,000 Descending FlightAware ADS-B
Tue 02:44:24 PM 45.7170 -73.0390 262° West 283 326 16,100 -875 Descending FlightAware ADS-B
Tue 02:45:18 PM 45.7280 -73.1330 280° West 285 328 14,800 -1,545 Descending FlightAware ADS-B
Tue 02:45:30 PM 45.7410 -73.1450 327° Northwest 295 339 14,400 -2,143 Descending FlightAware ADS-B
Tue 02:45:46 PM 45.7620 -73.1520 347° North 309 356 13,800 -1,857 Descending FlightAware ADS-B
Tue 02:46:12 PM 45.7980 -73.1340 19° North 324 373 13,100 -1,571 Descending FlightAware ADS-B
Tue 02:46:28 PM 45.8140 -73.1090 47° Northeast 329 379 12,700 -1,600 Descending FlightAware ADS-B
Tue 02:46:42 PM 45.8210 -73.0810 70° East 331 381 12,300 -1,395 Descending FlightAware ADS-B
Tue 02:47:11 PM 45.8190 -73.0360 94° East 327 376 11,700 -1,463 Descending FlightAware ADS-B
Tue 02:47:23 PM 45.8020 -73.0000 124° Southeast 320 368 11,300 -1,784 Descending FlightAware ADS-B
Tue 02:47:48 PM 45.7690 -72.9830 160° South 301 346 10,600 -1,636 Descending FlightAware ADS-B
Tue 02:48:18 PM 45.7330 -73.0050 203° Southwest 276 318 9,800 -1,571 Descending FlightAware ADS-B
Tue 02:48:30 PM 45.7240 -73.0210 231° Southwest 269 310 9,500 -1,400 Descending FlightAware ADS-B
Tue 02:48:48 PM 45.7160 -73.0500 248° West 262 302 9,100 -1,500 Descending FlightAware ADS-B
Tue 02:49:14 PM 45.7110 -73.0950 261° West 263 303 8,400 -1,500 Descending FlightAware ADS-B
Tue 02:49:32 PM 45.7060 -73.1260 257° West 262 302 8,000 -1,467 Descending FlightAware ADS-B
Tue 02:49:59 PM 45.6980 -73.1700 255° West 261 300 7,300 -1,500 Descending FlightAware ADS-B
Tue 02:50:28 PM 45.6900 -73.2190 257° West 260 299 6,600 -1,263 Descending FlightAware ADS-B
Tue 02:50:56 PM 45.6820 -73.2670 257° West 252 290 6,100 -1,111 Descending FlightAware ADS-B
Tue 02:51:22 PM 45.6760 -73.3070 258° West 247 284 5,600 -1,179 Descending FlightAware ADS-B
Tue 02:51:52 PM 45.6680 -73.3540 256° West 242 278 5,000 -1,138 Descending FlightAware ADS-B
Tue 02:52:20 PM 45.6610 -73.3980 257° West 232 267 4,500 -960 Descending FlightAware ADS-B
Tue 02:52:42 PM 45.6560 -73.4290 257° West 226 260 4,200 -875 Descending FlightAware ADS-B
Tue 02:53:08 PM 45.6500 -73.4660 257° West 219 252 3,800 -913 Descending FlightAware ADS-B
Tue 02:53:28 PM 45.6450 -73.4940 256° West 212 244 3,500 -750 Descending FlightAware ADS-B
Tue 02:53:40 PM 45.6420 -73.5110 256° West 208 239 3,400 -643 Descending FlightAware ADS-B
Tue 02:53:56 PM 45.6370 -73.5310 250° West 203 234 3,200 -643 Descending FlightAware ADS-B
Tue 02:54:08 PM 45.6300 -73.5420 228° Southwest 194 223 3,100  Descending FlightAware ADS-B
Tue 02:54:38 PM 45.6110 -73.5680 224° Southwest 188 216 3,200 107 Climbing FlightAware ADS-B
Tue 02:55:04 PM 45.5950 -73.5900 224° Southwest 183 211 3,200 -429 Level FlightAware ADS-B
Tue 02:55:20 PM 45.5850 -73.6030 222° Southwest 176 203 2,900 -955 Descending FlightAware ADS-B
Tue 02:55:48 PM 45.5680 -73.6250 222° Southwest 169 194 2,500 -900 Descending FlightAware ADS-B
Tue 02:56:00 PM 45.5610 -73.6330 219° Southwest 169 194 2,300 -857 Descending FlightAware ADS-B
Tue 02:56:30 PM 45.5450 -73.6550 224° Southwest 164 189 1,900 -857 Descending FlightAware ADS-B
Tue 02:56:56 PM 45.5310 -73.6740 224° Southwest 151 174 1,500 -789 Descending FlightAware ADS-B
Tue 02:57:08 PM 45.5250 -73.6820 223° Southwest 150 173 1,400 -714 Descending FlightAware ADS-B
Tue 02:57:38 PM 45.5100 -73.7010 222° Southwest 136 157 1,000 -724 Descending FlightAware ADS-B
Tue 02:58:06 PM 45.4980 -73.7160 221° Southwest 136 157 700 -643 Descending FlightAware ADS-B
Tue 02:58:51 PM 45.4760 -73.7450 223° Southwest 115 132 -933 Descending FlightAware ADS-B
Tue 02:59:17 PM 45.4710 -73.7530 228° Southwest 48 55  Level FlightAware ADS-B
Tue 02:59:42 PM 45.4680 -73.7560 215° Southwest 21 24  Level FlightAware ADS-B
Tue 03:00:07 PM 45.4660 -73.7560 180° South 20 23  Level FlightAware ADS-B
Tue 03:00:30 PM 45.4640 -73.7570 199° South 22 25  Level FlightAware ADS-B
Tue 03:00:54 PM 45.4620 -73.7570 180° South 12 14  Level FlightAware ADS-B
Tue 03:01:12 PM 45.4610 -73.7570 180° South 8 9  Level FlightAware ADS-B

Login

Don't have an account? Register now (free) for customized features, flight alerts, and more!